Time;durP1;ratioP1;P1;durP2;ratioP2;P2;SDS_P1;SDS_P2;PMS_P1;PMS_P2;Temp;Humidity;BMP_temperature;BMP_pressure;BME280_temperature;BME280_humidity;BME280_pressure;Samples;Min_cycle;Max_cycle;Signal;HPM_P1;HPM_P2
2022/05/15 00:01:07;;;;;;;9.73;4.55;;;;;;;15.23;62.65;100286.31;5094336;28;20051;-63
2022/05/15 00:04:06;;;;;;;6.32;4.40;;;;;;;15.23;62.79;100281.09;5093775;28;20051;-64
2022/05/15 00:07:06;;;;;;;9.85;4.80;;;;;;;15.24;62.82;100280.22;5095243;28;20426;-62
2022/05/15 00:10:05;;;;;;;7.28;5.10;;;;;;;15.25;62.79;100275.84;5095133;28;20097;-63
2022/05/15 00:13:05;;;;;;;9.63;5.03;;;;;;;15.25;62.99;100274.13;5093640;28;20062;-63
2022/05/15 00:15:55;;;;;;;8.93;5.32;;;;;;;15.24;62.90;100275.00;5094384;28;20073;-63
2022/05/15 00:18:40;;;;;;;8.40;4.88;;;;;;;15.25;63.01;100263.69;5093485;28;20443;-63
2022/05/15 00:21:24;;;;;;;;;;;;;;;15.23;62.88;100265.41;5094078;28;20047;-65
2022/05/15 00:24:08;;;;;;;8.05;4.85;;;;;;;15.21;63.10;100268.00;5094453;28;19919;-62
2022/05/15 00:27:09;;;;;;;9.90;5.03;;;;;;;15.20;62.94;100262.81;5094481;28;20051;-64
2022/05/15 00:30:08;;;;;;;9.63;4.97;;;;;;;15.19;62.86;100268.88;5094868;28;20124;-63
2022/05/15 00:33:09;;;;;;;8.57;5.32;;;;;;;15.18;62.62;100265.41;5094299;28;20058;-63
2022/05/15 00:36:05;;;;;;;12.93;5.65;;;;;;;15.18;62.70;100260.16;5093454;28;20051;-62
2022/05/15 00:39:06;;;;;;;9.18;5.00;;;;;;;15.16;62.76;100261.94;5093102;28;20055;-64
2022/05/15 00:42:01;;;;;;;12.77;6.10;;;;;;;15.15;63.13;100262.81;5093264;28;20410;-64
2022/05/15 00:45:00;;;;;;;9.13;5.82;;;;;;;15.13;62.94;100259.31;5093603;28;20063;-63
2022/05/15 00:47:47;;;;;;;10.55;6.25;;;;;;;15.14;62.97;100261.06;5094608;28;20050;-62
2022/05/15 00:50:34;;;;;;;9.27;5.15;;;;;;;15.16;62.87;100256.72;5093606;28;20050;-63
2022/05/15 00:53:30;;;;;;;9.80;5.00;;;;;;;15.17;63.00;100252.34;5093039;28;20043;-64
2022/05/15 00:56:23;;;;;;;11.43;5.20;;;;;;;15.17;62.99;100253.25;5093121;28;20051;-63
2022/05/15 00:59:25;;;;;;;7.57;5.75;;;;;;;15.18;62.82;100247.13;5093325;28;20042;-62
2022/05/15 01:02:28;;;;;;;15.52;6.40;;;;;;;15.17;62.95;100242.81;5093488;28;20105;-63
2022/05/15 01:05:26;;;;;;;7.75;5.20;;;;;;;15.17;63.00;100248.03;5092944;28;20153;-63
2022/05/15 01:08:27;;;;;;;8.00;5.13;;;;;;;15.16;62.74;100251.50;5093850;28;20051;-63
2022/05/15 01:11:24;;;;;;;10.13;5.32;;;;;;;15.17;62.75;100245.41;5092849;28;20165;-63
2022/05/15 01:14:13;;;;;;;11.23;5.20;;;;;;;15.17;62.88;100240.19;5093704;28;20071;-63
2022/05/15 01:16:57;;;;;;;8.00;5.20;;;;;;;15.18;62.66;100244.50;5092769;28;20525;-63
2022/05/15 01:19:42;;;;;;;;;;;;;;;15.17;62.83;100245.41;5094300;28;20050;-63
2022/05/15 01:22:30;;;;;;;6.75;4.75;;;;;;;15.16;62.55;100243.66;5093005;28;19919;-64
2022/05/15 01:25:42;;;;;;;9.02;5.20;;;;;;;15.17;63.00;100248.03;5093266;28;20046;-62
2022/05/15 01:28:44;;;;;;;6.95;4.82;;;;;;;15.16;63.17;100256.72;5093633;28;20073;-63
2022/05/15 01:31:36;;;;;;;7.72;5.25;;;;;;;15.15;62.81;100251.47;5093801;28;20074;-63
2022/05/15 01:34:35;;;;;;;9.32;5.65;;;;;;;15.12;62.77;100254.06;5093320;28;20177;-63
2022/05/15 01:37:33;;;;;;;7.55;4.82;;;;;;;15.12;62.65;100259.31;5092345;28;20064;-63
2022/05/15 01:40:34;;;;;;;9.13;5.22;;;;;;;15.12;62.96;100259.31;5092176;28;20079;-63
2022/05/15 01:43:19;;;;;;;8.80;5.28;;;;;;;15.12;62.90;100254.97;5093139;28;20418;-62
2022/05/15 01:46:03;;;;;;;8.63;5.40;;;;;;;15.11;62.84;100257.56;5092587;28;20044;-63
2022/05/15 01:48:49;;;;;;;9.30;5.63;;;;;;;15.12;62.85;100264.53;5093717;28;20051;-63
2022/05/15 01:51:44;;;;;;;7.10;5.45;;;;;;;15.11;62.95;100254.94;5092185;28;20411;-62
2022/05/15 01:54:39;;;;;;;9.45;5.47;;;;;;;15.09;63.13;100254.97;5093498;28;20056;-63
2022/05/15 01:57:41;;;;;;;11.00;5.60;;;;;;;15.06;62.83;100245.41;5093304;28;20521;-64
2022/05/15 02:00:40;;;;;;;7.82;5.43;;;;;;;15.07;62.88;100241.03;5093312;28;20506;-63
2022/05/15 02:03:39;;;;;;;8.77;5.55;;;;;;;15.06;63.00;100245.41;5092758;28;20502;-62
2022/05/15 02:06:35;;;;;;;12.88;5.05;;;;;;;15.05;62.90;100246.25;5093352;28;20054;-63
2022/05/15 02:09:38;;;;;;;9.85;5.32;;;;;;;15.04;62.96;100241.91;5092175;28;20529;-63
2022/05/15 02:12:23;;;;;;;7.95;5.20;;;;;;;15.02;63.02;100242.78;5092328;28;20047;-63
2022/05/15 02:15:07;;;;;;;7.28;5.53;;;;;;;15.03;63.09;100247.09;5093123;28;20047;-64
2022/05/15 02:17:52;;;;;;;7.57;5.25;;;;;;;15.03;63.05;100237.56;5091846;28;20526;-63
2022/05/15 02:20:39;;;;;;;;;;;;;;;15.03;62.93;100234.06;5092695;28;20055;-63
2022/05/15 02:24:30;;;;;;;8.68;4.88;;;;;;;15.02;62.94;100232.34;5131981;27;20144;-63
2022/05/15 02:27:31;;;;;;;6.43;4.72;;;;;;;15.03;63.28;100228.84;5132120;28;20418;-62
2022/05/15 02:30:29;;;;;;;9.93;5.80;;;;;;;15.03;62.93;100219.28;5116152;28;20119;-62
2022/05/15 02:33:28;;;;;;;8.68;5.80;;;;;;;15.02;62.94;100230.59;5116554;28;20192;-63
2022/05/15 02:36:12;;;;;;;10.48;5.82;;;;;;;15.04;63.08;100222.75;5131510;28;20047;-64
2022/05/15 02:38:56;;;;;;;9.25;5.57;;;;;;;15.04;63.14;100220.16;5131280;28;20417;-63
2022/05/15 02:41:40;;;;;;;7.93;5.68;;;;;;;15.05;62.97;100227.09;5131640;28;20050;-63
2022/05/15 02:44:24;;;;;;;7.63;6.13;;;;;;;15.05;62.98;100232.31;5115925;28;20119;-63
2022/05/15 02:47:08;;;;;;;8.48;5.55;;;;;;;15.03;63.11;100219.28;5131775;28;20050;-63
2022/05/15 02:53:09;;;;;;;8.98;5.45;;;;;;;15.04;62.85;100222.75;5131088;28;20051;-63
2022/05/15 02:56:10;;;;;;;10.40;6.30;;;;;;;15.03;63.31;100213.19;5131244;28;20566;-63
2022/05/15 02:59:08;;;;;;;7.80;5.20;;;;;;;15.02;62.57;100220.16;5131481;28;20046;-64
2022/05/15 03:02:05;;;;;;;8.20;6.40;;;;;;;15.02;62.94;100217.53;5130864;28;20143;-63
2022/05/15 03:05:07;;;;;;;7.78;6.03;;;;;;;15.02;63.27;100211.47;5115433;28;20055;-62
2022/05/15 03:08:05;;;;;;;8.73;5.90;;;;;;;15.01;62.86;100207.97;5131290;28;20113;-63
2022/05/15 03:10:52;;;;;;;9.30;5.57;;;;;;;15.01;62.95;100209.72;5115094;28;20485;-63
2022/05/15 03:13:36;;;;;;;9.40;6.35;;;;;;;15.01;63.13;100207.13;5131093;28;20058;-63
2022/05/15 03:16:20;;;;;;;;;;;;;;;15.00;62.83;100208.00;5131346;28;20042;-62
2022/05/15 03:19:04;;;;;;;11.35;5.90;;;;;;;14.98;63.08;100207.13;5130878;28;19994;-63
2022/05/15 03:21:48;;;;;;;7.35;5.68;;;;;;;15.00;63.16;100202.75;5130907;28;20043;-63
2022/05/15 03:24:32;;;;;;;9.63;6.35;;;;;;;15.00;63.26;100197.56;5130602;28;20068;-63
2022/05/15 03:27:35;;;;;;;10.05;6.32;;;;;;;14.98;63.20;100189.69;5130940;28;20108;-63
2022/05/15 03:30:37;;;;;;;9.68;6.05;;;;;;;14.98;62.99;100199.28;5115529;28;20117;-63
2022/05/15 03:33:36;;;;;;;8.05;6.03;;;;;;;14.98;62.97;100196.69;5129725;28;20513;-62
2022/05/15 03:36:37;;;;;;;8.32;6.13;;;;;;;14.97;63.13;100192.31;5101815;28;20050;-62
2022/05/15 03:39:38;;;;;;;12.23;7.38;;;;;;;14.97;62.92;100197.53;5101609;28;20120;-63
2022/05/15 03:42:31;;;;;;;10.25;6.60;;;;;;;14.95;62.96;100199.28;5101484;28;20535;-63
2022/05/15 03:45:15;;;;;;;9.20;6.30;;;;;;;14.95;63.00;100207.09;5101260;28;20100;-63
2022/05/15 03:47:59;;;;;;;8.15;6.15;;;;;;;14.95;63.14;100201.88;5116556;28;20054;-63
2022/05/15 03:50:43;;;;;;;12.00;6.43;;;;;;;14.95;63.01;100205.34;5116892;28;20386;-63
2022/05/15 03:53:44;;;;;;;12.98;6.97;;;;;;;14.94;62.92;100198.41;5117064;28;20050;-63
2022/05/15 03:56:53;;;;;;;10.68;6.53;;;;;;;14.94;62.98;100203.63;5116585;28;20043;-63
2022/05/15 03:59:51;;;;;;;11.38;6.35;;;;;;;14.94;63.00;100207.97;5101017;28;20131;-63
2022/05/15 04:02:44;;;;;;;8.38;6.45;;;;;;;14.94;62.88;100205.38;5101160;28;20100;-63
2022/05/15 04:05:45;;;;;;;10.35;5.97;;;;;;;14.92;62.93;100198.41;5100856;28;20475;-64
2022/05/15 04:08:43;;;;;;;7.38;5.35;;;;;;;14.93;63.09;100204.50;5116498;28;20065;-63
2022/05/15 04:11:28;;;;;;;9.95;6.03;;;;;;;14.91;63.22;100207.09;5100802;28;20051;-62
2022/05/15 04:14:12;;;;;;;11.48;5.97;;;;;;;14.92;63.05;100210.59;5116107;28;20101;-63
2022/05/15 04:16:56;;;;;;;8.93;6.35;;;;;;;14.92;63.12;100215.81;5115874;28;20092;-62
2022/05/15 04:19:40;;;;;;;12.98;6.53;;;;;;;14.91;63.16;100207.09;5101017;28;20433;-63
2022/05/15 04:22:44;;;;;;;7.80;5.72;;;;;;;14.90;62.93;100207.09;5115839;28;20058;-63
2022/05/15 04:25:43;;;;;;;10.30;6.40;;;;;;;14.90;63.08;100215.78;5100339;28;20112;-63
2022/05/15 04:28:41;;;;;;;9.88;6.32;;;;;;;14.90;63.13;100222.75;5100936;28;20081;-63
2022/05/15 04:31:37;;;;;;;9.25;6.18;;;;;;;14.88;63.04;100222.75;5100759;28;20104;-62
2022/05/15 04:34:35;;;;;;;13.30;6.15;;;;;;;14.89;63.12;100219.25;5129149;27;20512;-64
2022/05/15 04:37:36;;;;;;;12.43;6.38;;;;;;;14.89;63.03;100219.25;5115873;28;20066;-63
2022/05/15 04:40:26;;;;;;;9.88;6.05;;;;;;;14.88;63.30;100214.06;5115298;28;20046;-63
2022/05/15 04:43:11;;;;;;;10.50;6.43;;;;;;;14.88;63.13;100221.88;5100152;28;20398;-63
2022/05/15 04:46:07;;;;;;;10.73;7.22;;;;;;;14.88;63.00;100227.09;5114686;28;20456;-62
2022/05/15 04:49:00;;;;;;;7.85;5.70;;;;;;;14.87;63.14;100212.31;5115116;28;20563;-63
2022/05/15 04:51:57;;;;;;;11.00;6.03;;;;;;;14.85;63.23;100212.31;5100208;28;20138;-63
2022/05/15 04:54:53;;;;;;;8.40;5.88;;;;;;;14.84;63.15;100209.69;5115256;28;20038;-62
2022/05/15 04:57:44;;;;;;;12.27;6.13;;;;;;;14.83;62.97;100216.66;5115515;28;20089;-63
2022/05/15 05:00:34;;;;;;;10.55;6.47;;;;;;;14.83;63.27;100219.28;5115125;28;20042;-63
2022/05/15 05:03:29;;;;;;;14.75;5.80;;;;;;;14.83;63.20;100215.78;5099620;28;20494;-63
2022/05/15 05:06:16;;;;;;;9.45;6.25;;;;;;;14.83;63.30;100221.88;5114978;28;20543;-62
2022/05/15 05:09:00;;;;;;;9.25;6.57;;;;;;;14.84;63.12;100221.03;5115237;28;20104;-62
2022/05/15 05:11:46;;;;;;;7.32;6.45;;;;;;;14.83;63.30;100216.66;5114561;28;20088;-63
2022/05/15 05:14:47;;;;;;;8.95;6.10;;;;;;;14.83;63.34;100218.38;5100045;28;20096;-62
2022/05/15 05:17:48;;;;;;;9.45;6.10;;;;;;;14.82;63.33;100216.66;5128676;27;20088;-62
2022/05/15 05:20:43;;;;;;;10.25;6.57;;;;;;;14.80;63.18;100210.56;5115128;28;20093;-62
2022/05/15 05:23:38;;;;;;;9.25;6.53;;;;;;;14.80;63.22;100218.38;5098695;28;20058;-63
2022/05/15 05:26:34;;;;;;;10.63;5.72;;;;;;;14.79;63.29;100212.31;5099103;28;20042;-63
2022/05/15 05:29:32;;;;;;;14.65;6.47;;;;;;;14.77;63.47;100221.88;5098627;28;20047;-62
2022/05/15 05:32:27;;;;;;;40.33;8.10;;;;;;;14.75;63.34;100216.66;5127985;27;20047;-64
2022/05/15 05:35:13;;;;;;;13.85;7.88;;;;;;;14.75;63.47;100215.78;5128160;27;20046;-63
2022/05/15 05:37:56;;;;;;;12.15;6.75;;;;;;;14.76;63.65;100221.00;5114698;28;20047;-64
2022/05/15 05:40:49;;;;;;;10.90;7.18;;;;;;;14.74;63.43;100217.53;5114466;28;20047;-63
2022/05/15 05:43:47;;;;;;;14.30;6.78;;;;;;;14.74;63.45;100220.13;5098510;28;20112;-63
2022/05/15 05:46:47;;;;;;;14.60;7.18;;;;;;;14.73;63.60;100221.00;5099181;28;20079;-63
2022/05/15 05:49:48;;;;;;;11.02;6.53;;;;;;;14.74;63.41;100220.13;5098850;28;20043;-63
2022/05/15 05:52:41;;;;;;;19.98;8.00;;;;;;;14.76;63.58;100222.72;5113807;28;20049;-62
2022/05/15 05:55:33;;;;;;;13.13;7.10;;;;;;;14.75;63.49;100215.78;5114498;28;20042;-62
2022/05/15 05:58:22;;;;;;;12.85;6.07;;;;;;;14.75;63.54;100210.56;5098328;28;20476;-63
2022/05/15 06:01:07;;;;;;;17.00;6.82;;;;;;;14.77;63.64;100214.03;5098964;28;20131;-63
2022/05/15 06:07:05;;;;;;;8.98;6.47;;;;;;;14.80;63.50;100218.38;5114060;28;20050;-63
2022/05/15 06:10:01;;;;;;;13.60;6.75;;;;;;;14.80;63.73;100223.59;5114264;28;20050;-63
2022/05/15 06:12:53;;;;;;;20.75;7.22;;;;;;;14.82;63.76;100222.75;5114231;28;20046;-63
2022/05/15 06:15:52;;;;;;;13.07;6.80;;;;;;;14.83;63.55;100215.78;5114179;28;20107;-62
2022/05/15 06:18:50;;;;;;;10.35;6.75;;;;;;;14.84;63.56;100217.53;5098414;28;20055;-64
2022/05/15 06:21:46;;;;;;;10.45;5.95;;;;;;;14.85;63.72;100216.66;5113574;28;20059;-62
2022/05/15 06:24:30;;;;;;;14.07;6.75;;;;;;;14.86;63.55;100215.78;5127473;28;20043;-63
2022/05/15 06:27:15;;;;;;;11.43;7.22;;;;;;;14.87;63.64;100214.94;5113724;28;20410;-63
2022/05/15 06:29:59;;;;;;;9.98;6.18;;;;;;;14.88;63.31;100216.66;5098584;28;20505;-64
2022/05/15 06:32:57;;;;;;;;;;;;;;;14.87;63.64;100222.75;5114610;28;20058;-62
2022/05/15 06:35:50;;;;;;;11.93;6.63;;;;;;;14.85;63.55;100225.38;5114034;28;19919;-63
2022/05/15 06:38:43;;;;;;;20.38;6.72;;;;;;;14.87;63.78;100213.16;5113934;28;20047;-62
2022/05/15 06:41:30;;;;;;;12.40;6.65;;;;;;;14.89;63.68;100215.81;5113852;28;20127;-64
2022/05/15 06:44:20;;;;;;;8.73;6.90;;;;;;;14.89;63.65;100207.97;5097766;28;20127;-63
2022/05/15 06:47:18;;;;;;;13.90;7.15;;;;;;;14.90;63.91;100207.09;5098635;28;20082;-63
2022/05/15 06:50:04;;;;;;;13.95;6.07;;;;;;;14.91;63.64;100206.25;5113283;28;20046;-64
2022/05/15 06:52:51;;;;;;;16.08;6.50;;;;;;;14.90;63.86;100202.75;5113745;28;20059;-62
2022/05/15 06:55:35;;;;;;;10.63;7.07;;;;;;;14.91;63.81;100212.31;5113544;28;20562;-63
2022/05/15 06:58:24;;;;;;;12.18;7.20;;;;;;;14.92;63.86;100210.59;5113473;28;20047;-62
2022/05/15 07:01:08;;;;;;;10.15;6.22;;;;;;;14.93;63.60;100212.34;5098549;28;20050;-63
2022/05/15 07:04:01;;;;;;;;;;;;;;;14.91;63.64;100211.47;5113774;28;20042;-63
2022/05/15 07:06:50;;;;;;;10.15;5.68;;;;;;;14.92;63.70;100214.06;5097577;28;19921;-63
2022/05/15 07:09:43;;;;;;;11.73;5.93;;;;;;;14.92;63.74;100218.41;5099293;28;20124;-63
2022/05/15 07:12:27;;;;;;;10.10;6.60;;;;;;;14.92;63.84;100211.44;5117459;28;20073;-62
2022/05/15 07:15:19;;;;;;;11.75;6.40;;;;;;;14.94;63.81;100218.41;5117144;28;20092;-62
2022/05/15 07:18:07;;;;;;;11.27;6.68;;;;;;;14.95;63.97;100210.56;5102065;28;20111;-62
2022/05/15 07:20:52;;;;;;;13.35;6.90;;;;;;;14.95;63.82;100210.56;5101957;28;20092;-62
2022/05/15 07:23:42;;;;;;;10.32;6.20;;;;;;;14.96;63.74;100204.47;5095594;28;20556;-62
2022/05/15 07:26:34;;;;;;;9.27;6.57;;;;;;;14.97;63.88;100213.19;5095862;28;20047;-63
2022/05/15 07:29:24;;;;;;;10.35;6.45;;;;;;;14.97;63.92;100203.63;5095848;28;20051;-63
2022/05/15 07:32:16;;;;;;;9.32;6.00;;;;;;;14.97;63.92;100194.94;5096836;28;20062;-62
2022/05/15 07:35:06;;;;;;;9.07;5.53;;;;;;;14.99;63.99;100209.72;5095264;28;20047;-63
2022/05/15 07:37:53;;;;;;;11.45;5.68;;;;;;;14.99;63.74;100212.31;5096001;28;20051;-63
2022/05/15 07:40:37;;;;;;;9.88;6.38;;;;;;;14.99;63.57;100211.47;5095424;28;20043;-63
2022/05/15 07:43:21;;;;;;;12.27;5.45;;;;;;;15.01;63.88;100204.50;5095941;28;20069;-63
2022/05/15 07:46:13;;;;;;;9.80;6.00;;;;;;;15.02;63.93;100206.25;5095367;28;20438;-62
2022/05/15 07:49:06;;;;;;;12.85;5.38;;;;;;;15.02;63.93;100196.66;5096052;28;20105;-63
2022/05/15 07:52:01;;;;;;;8.65;5.57;;;;;;;15.03;63.96;100198.41;5095538;28;20392;-62
2022/05/15 07:54:51;;;;;;;10.65;5.68;;;;;;;15.03;63.82;100187.09;5095265;28;20090;-62
2022/05/15 07:57:49;;;;;;;11.00;5.28;;;;;;;15.04;63.80;100202.75;5095601;28;20467;-63
2022/05/15 08:00:42;;;;;;;9.48;5.55;;;;;;;15.06;63.91;100194.91;5095234;28;20051;-63
2022/05/15 08:03:26;;;;;;;7.32;5.60;;;;;;;15.07;63.91;100194.06;5094574;28;20097;-64
2022/05/15 08:09:19;;;;;;;21.15;5.43;;;;;;;15.07;63.79;100174.06;5095852;28;20131;-63
2022/05/15 08:12:14;;;;;;;9.55;6.47;;;;;;;15.09;63.97;100175.81;5095100;28;20096;-63
2022/05/15 08:15:05;;;;;;;8.80;5.13;;;;;;;15.10;64.03;100172.31;5094975;28;20109;-63
2022/05/15 08:17:55;;;;;;;9.07;5.80;;;;;;;15.11;63.80;100172.31;5095981;28;20047;-63
2022/05/15 08:24:00;;;;;;;13.32;5.75;;;;;;;15.13;63.94;100162.75;5112510;28;20154;-62
2022/05/15 08:26:45;;;;;;;16.55;5.85;;;;;;;15.15;63.86;100158.38;5100805;28;20051;-63
2022/05/15 08:29:41;;;;;;;12.25;5.30;;;;;;;15.16;63.84;100156.63;5116080;28;20104;-63
2022/05/15 08:32:33;;;;;;;8.25;5.55;;;;;;;15.17;63.88;100158.38;5100379;28;20051;-62
2022/05/15 08:35:20;;;;;;;12.73;5.30;;;;;;;15.18;63.89;100165.34;5100386;28;20094;-63
2022/05/15 08:38:07;;;;;;;10.38;5.45;;;;;;;15.19;63.80;100154.88;5100489;28;20123;-63
2022/05/15 08:41:03;;;;;;;11.88;5.30;;;;;;;15.21;63.88;100168.81;5100152;28;20046;-62
2022/05/15 08:44:18;;;;;;;8.88;4.95;;;;;;;15.23;63.92;100158.38;5100256;28;20091;-63
2022/05/15 08:48:37;;;;;;;7.10;5.13;;;;;;;15.24;63.81;100157.50;5131821;27;20146;-62
2022/05/15 08:51:28;;;;;;;14.57;6.07;;;;;;;15.26;63.98;100157.50;5116328;28;20169;-62
2022/05/15 08:54:17;;;;;;;9.70;5.35;;;;;;;15.29;63.91;100157.50;5131835;28;20055;-63
2022/05/15 08:57:08;;;;;;;8.65;5.03;;;;;;;15.31;64.00;100147.94;5131678;28;20124;-63
2022/05/15 09:00:03;;;;;;;8.73;4.88;;;;;;;15.32;63.87;100153.13;5115810;28;20050;-63
2022/05/15 09:03:03;;;;;;;7.80;5.50;;;;;;;15.32;64.14;100145.31;5131407;28;20495;-63
2022/05/15 09:06:02;;;;;;;9.60;4.95;;;;;;;15.34;63.52;100147.91;5116191;28;20085;-63
2022/05/15 09:10:49;;;;;;;9.13;5.03;;;;;;;15.38;63.84;100152.25;5152598;27;20344;-62
2022/05/15 09:13:46;;;;;;;8.88;5.00;;;;;;;15.40;63.78;100154.88;5152892;27;20175;-64
2022/05/15 09:16:30;;;;;;;6.47;4.55;;;;;;;15.41;63.83;100146.16;5136791;27;20107;-64
2022/05/15 09:19:14;;;;;;;;;;;;;;;15.42;63.83;100156.59;5137555;27;20095;-64
2022/05/15 09:21:59;;;;;;;13.65;4.90;;;;;;;15.42;64.11;100150.50;5136711;27;19923;-63
2022/05/15 09:24:56;;;;;;;8.77;4.80;;;;;;;15.46;63.68;100160.06;5137129;27;20084;-63
2022/05/15 09:28:06;;;;;;;7.13;4.78;;;;;;;15.47;63.72;100149.63;5136348;27;20578;-63
2022/05/15 09:31:04;;;;;;;10.07;5.35;;;;;;;15.50;63.98;100146.13;5152327;27;20042;-63
2022/05/15 09:34:51;;;;;;;7.55;4.78;;;;;;;15.54;63.51;100145.25;5111546;27;20258;-63
2022/05/15 09:43:56;;;;;;;4.93;3.60;;;;;;;15.61;63.62;100136.50;5111748;28;20104;-60
2022/05/15 09:46:40;;;;;;;6.53;4.43;;;;;;;15.66;63.40;100126.94;5110335;28;20062;-63
2022/05/15 09:49:26;;;;;;;12.13;4.57;;;;;;;15.68;63.71;100129.53;5110493;28;20513;-63
2022/05/15 09:52:30;;;;;;;9.38;4.07;;;;;;;15.68;63.57;100125.19;5109941;28;20139;-62
2022/05/15 09:55:29;;;;;;;10.93;4.75;;;;;;;15.70;63.58;100119.94;5110823;28;20081;-62
2022/05/15 09:58:25;;;;;;;8.05;4.38;;;;;;;15.71;63.46;100108.63;5111012;28;20082;-63
2022/05/15 10:01:29;;;;;;;10.38;4.40;;;;;;;15.71;63.46;100105.16;5110816;28;20050;-62
2022/05/15 10:04:31;;;;;;;7.00;3.90;;;;;;;15.71;63.40;100105.16;5109756;28;20101;-62
2022/05/15 10:07:46;;;;;;;6.85;4.00;;;;;;;15.72;63.52;100105.13;5110030;28;20074;-63
2022/05/15 10:10:39;;;;;;;7.00;3.92;;;;;;;15.73;63.51;100105.97;5110392;28;20050;-63
2022/05/15 10:13:39;;;;;;;9.15;3.63;;;;;;;15.74;63.39;100102.50;5110171;28;20541;-63
2022/05/15 10:16:30;;;;;;;9.38;3.55;;;;;;;15.75;63.47;100099.91;5109297;28;20101;-62
2022/05/15 10:19:27;;;;;;;10.02;4.07;;;;;;;15.74;63.46;100100.78;5109918;28;20055;-63
2022/05/15 10:22:47;;;;;;;6.97;4.13;;;;;;;15.76;63.48;100091.19;5109638;28;20044;-63
2022/05/15 10:25:58;;;;;;;6.35;3.88;;;;;;;15.77;63.34;100105.09;5110313;28;20048;-63
2022/05/15 10:29:19;;;;;;;5.57;3.60;;;;;;;15.77;63.38;100085.09;5109201;28;20093;-63
2022/05/15 10:32:22;;;;;;;5.47;3.35;;;;;;;15.79;63.40;100091.19;5094280;28;20093;-63
2022/05/15 10:35:13;;;;;;;5.65;3.78;;;;;;;15.80;63.32;100086.81;5110030;28;20042;-63
2022/05/15 10:38:22;;;;;;;9.63;3.60;;;;;;;15.81;63.48;100097.25;5109612;28;20070;-62
2022/05/15 10:41:30;;;;;;;4.57;3.63;;;;;;;15.82;63.31;100085.91;5109513;28;20082;-64
2022/05/15 10:44:59;;;;;;;4.82;3.42;;;;;;;15.84;63.38;100078.09;5105254;28;20051;-63
2022/05/15 10:48:17;;;;;;;8.48;4.10;;;;;;;15.83;63.28;100082.44;5095386;28;20142;-64
2022/05/15 10:51:27;;;;;;;7.15;3.30;;;;;;;15.86;63.38;100081.59;5095161;28;20057;-64
2022/05/15 10:58:20;;;;;;;10.40;3.63;;;;;;;16.43;62.75;100081.22;5095461;28;20101;-63
2022/05/15 11:01:30;;;;;;;10.63;4.18;;;;;;;16.71;62.45;100064.41;5096493;28;20054;-64
2022/05/15 11:04:55;;;;;;;7.43;4.15;;;;;;;16.87;62.36;100059.94;5095871;28;20486;-63
2022/05/15 11:08:28;;;;;;;9.73;4.83;;;;;;;17.01;62.19;100060.69;5094850;28;20035;-63
2022/05/15 11:11:30;;;;;;;8.85;4.40;;;;;;;17.11;62.00;100051.00;5095743;28;20119;-62
2022/05/15 11:14:49;;;;;;;9.85;4.00;;;;;;;17.22;61.73;100053.47;5094892;28;20043;-63
2022/05/15 11:18:22;;;;;;;6.30;3.35;;;;;;;17.29;61.70;100039.44;5094812;28;20126;-64
2022/05/15 11:21:31;;;;;;;7.68;3.22;;;;;;;17.35;61.34;100041.09;5085130;28;20054;-63
2022/05/15 11:24:41;;;;;;;29.35;4.78;;;;;;;17.46;61.35;100028.75;5095229;28;20090;-65
2022/05/15 11:27:40;;;;;;;7.65;3.00;;;;;;;17.49;61.32;100033.94;5095316;28;20105;-62
2022/05/15 11:30:41;;;;;;;4.75;3.22;;;;;;;17.56;61.31;100021.63;5095960;28;20046;-63
2022/05/15 11:33:54;;;;;;;14.93;3.38;;;;;;;17.60;61.10;100027.69;5094960;28;20062;-63
2022/05/15 11:36:49;;;;;;;5.35;3.17;;;;;;;17.64;61.02;100024.16;5094863;28;20043;-64
2022/05/15 11:39:33;;;;;;;;;;;;;;;17.65;61.16;100016.28;5095026;28;20058;-64
2022/05/15 11:42:26;;;;;;;8.00;3.55;;;;;;;17.68;60.94;100007.50;5095383;28;19918;-62
2022/05/15 11:45:33;;;;;;;5.85;3.50;;;;;;;17.72;60.86;100001.34;5094598;28;20055;-63
2022/05/15 11:48:50;;;;;;;8.15;3.20;;;;;;;17.75;60.81;100001.28;5094368;28;20094;-63
2022/05/15 11:51:43;;;;;;;13.52;3.83;;;;;;;17.83;60.59;100005.53;5094483;28;20055;-63
2022/05/15 11:54:42;;;;;;;11.07;3.78;;;;;;;17.85;60.51;99995.91;5094792;28;20047;-63
2022/05/15 11:57:50;;;;;;;7.32;3.30;;;;;;;17.89;60.65;100002.84;5094066;28;20073;-63
2022/05/15 12:00:42;;;;;;;8.13;3.40;;;;;;;17.91;59.94;100003.66;5094171;28;20135;-63
2022/05/15 12:03:50;;;;;;;6.75;2.88;;;;;;;17.92;59.96;99984.44;5094857;28;20105;-63
2022/05/15 12:07:14;;;;;;;7.70;3.15;;;;;;;17.94;60.12;99978.28;5094489;28;20082;-64
2022/05/15 12:10:10;;;;;;;5.50;3.05;;;;;;;17.94;59.97;99973.03;5093892;28;20073;-63
2022/05/15 12:13:32;;;;;;;7.05;2.75;;;;;;;18.00;59.99;99968.59;5093508;28;20047;-64
2022/05/15 12:16:33;;;;;;;12.23;3.15;;;;;;;18.02;59.78;99974.69;5083396;28;20081;-63
2022/05/15 12:19:34;;;;;;;6.47;3.03;;;;;;;18.05;59.53;99967.69;5094666;28;20047;-63
2022/05/15 12:22:38;;;;;;;5.55;3.47;;;;;;;18.10;59.33;99951.84;5093575;28;20106;-62
2022/05/15 12:25:32;;;;;;;6.18;3.08;;;;;;;18.14;59.32;99960.53;5093696;28;20222;-63
2022/05/15 12:31:38;;;;;;;11.48;3.13;;;;;;;18.17;59.44;99956.09;5093958;28;20083;-63
2022/05/15 12:34:37;;;;;;;9.98;3.50;;;;;;;18.21;59.24;99956.94;5093986;28;20125;-63
2022/05/15 12:37:40;;;;;;;6.82;2.75;;;;;;;18.24;59.11;99946.34;5093163;28;20097;-63
2022/05/15 12:40:37;;;;;;;9.50;3.58;;;;;;;18.29;59.00;99941.91;5094254;28;20525;-64
2022/05/15 12:43:49;;;;;;;11.68;3.33;;;;;;;18.32;59.37;99943.59;5093565;28;20070;-62
2022/05/15 12:47:00;;;;;;;9.55;3.30;;;;;;;18.34;59.01;99939.19;5093310;28;20077;-63
2022/05/15 12:50:04;;;;;;;32.03;4.22;;;;;;;18.40;59.04;99939.94;5094367;28;20074;-63
2022/05/15 12:53:01;;;;;;;13.20;4.38;;;;;;;18.42;58.82;99938.16;5093256;28;20105;-62
2022/05/15 12:55:45;;;;;;;20.67;4.13;;;;;;;18.40;58.45;99939.09;5094291;28;20105;-63
2022/05/15 12:58:33;;;;;;;10.13;4.43;;;;;;;18.38;58.32;99935.63;5094018;28;20163;-64
2022/05/15 13:01:20;;;;;;;16.95;4.90;;;;;;;18.38;58.40;99933.00;5094126;28;20051;-62
2022/05/15 13:04:19;;;;;;;13.45;4.43;;;;;;;18.42;58.42;99934.69;5093921;28;20093;-64
2022/05/15 13:07:15;;;;;;;8.98;3.72;;;;;;;18.40;58.62;99931.22;5093807;28;20561;-63
2022/05/15 13:10:20;;;;;;;9.80;3.75;;;;;;;18.45;59.01;99929.38;5092756;28;20415;-63
2022/05/15 13:13:26;;;;;;;15.55;3.70;;;;;;;18.44;58.68;99932.03;5093716;28;20506;-62
2022/05/15 13:16:28;;;;;;;13.13;3.00;;;;;;;18.42;58.59;99932.94;5092703;28;20051;-62
2022/05/15 13:19:33;;;;;;;9.20;3.10;;;;;;;18.45;58.26;99934.63;5093195;28;20489;-62
2022/05/15 13:22:28;;;;;;;5.03;2.88;;;;;;;18.44;58.10;99927.66;5093890;28;20047;-63
2022/05/15 13:25:17;;;;;;;15.07;3.20;;;;;;;18.44;58.13;99932.91;5093646;28;20580;-64
2022/05/15 13:28:08;;;;;;;9.65;2.90;;;;;;;18.44;57.92;99930.28;5092657;28;20042;-62
2022/05/15 13:30:57;;;;;;;8.73;2.78;;;;;;;18.44;58.06;99932.03;5093820;28;20055;-63
2022/05/15 13:33:49;;;;;;;11.23;4.05;;;;;;;18.46;57.85;99930.25;5092271;28;20059;-63
2022/05/15 13:37:17;;;;;;;10.23;3.28;;;;;;;18.49;58.06;99930.19;5093861;28;20101;-63
2022/05/15 13:43:29;;;;;;;9.15;3.00;;;;;;;18.51;58.00;99928.41;5093406;28;20082;-64
2022/05/15 13:46:25;;;;;;;6.82;3.25;;;;;;;18.52;57.99;99923.13;5092766;28;20085;-64
2022/05/15 13:49:15;;;;;;;7.43;2.75;;;;;;;18.53;57.89;99922.25;5092636;28;20517;-62
2022/05/15 13:52:30;;;;;;;6.78;3.13;;;;;;;18.56;58.11;99922.19;5093769;28;20081;-62
2022/05/15 13:55:36;;;;;;;;;;;;;;;18.58;57.96;99919.53;5092682;28;20545;-62
2022/05/15 13:58:44;;;;;;;8.20;3.45;;;;;;;18.59;58.01;99915.16;5092565;28;19965;-63
2022/05/15 14:02:06;;;;;;;7.25;3.55;;;;;;;18.61;57.86;99910.75;5092234;28;20042;-63
2022/05/15 14:05:13;;;;;;;9.38;3.75;;;;;;;18.62;57.94;99902.81;5092219;28;20047;-63
2022/05/15 14:08:15;;;;;;;8.05;3.40;;;;;;;18.64;57.71;99897.53;5092600;28;20088;-62
2022/05/15 14:11:12;;;;;;;5.38;2.83;;;;;;;18.66;57.89;99893.13;5092525;28;20098;-63